createdAt,value
2022-09-22T00:01:03.516Z,102133.78
2022-09-22T00:05:07.001Z,102133.81
2022-09-22T00:07:08.773Z,102133.81
2022-09-22T00:09:12.773Z,102134.66
2022-09-22T00:11:20.470Z,102133.94
2022-09-22T00:13:22.608Z,102135.53
2022-09-22T00:15:24.483Z,102131.22
2022-09-22T00:17:26.371Z,102130.25
2022-09-22T00:19:33.472Z,102139.78
2022-09-22T00:21:35.808Z,102138.16
2022-09-22T00:23:38.592Z,102134.56
2022-09-22T00:25:41.361Z,102131.13
2022-09-22T00:27:44.149Z,102134.84
2022-09-22T00:29:46.368Z,102128.47
2022-09-22T00:31:48.408Z,102124.25
2022-09-22T00:33:52.266Z,102124.28
2022-09-22T00:35:59.125Z,102126.00
2022-09-22T00:38:01.053Z,102124.16
2022-09-22T00:40:03.710Z,102118.13
2022-09-22T00:42:05.973Z,102117.19
2022-09-22T00:44:27.585Z,102121.50
2022-09-22T00:46:29.557Z,102115.38
2022-09-22T00:48:37.313Z,102115.44
2022-09-22T00:50:40.816Z,102116.28
2022-09-22T00:52:49.322Z,102112.75
2022-09-22T00:54:54.774Z,102110.25
2022-09-22T00:57:08.263Z,102106.69
2022-09-22T00:59:14.058Z,102109.34
2022-09-22T01:01:16.260Z,102112.69
2022-09-22T01:03:25.097Z,102113.53
2022-09-22T01:05:34.149Z,102107.50
2022-09-22T01:07:37.155Z,102104.91
2022-09-22T01:09:39.036Z,102109.22
2022-09-22T01:11:42.571Z,102093.50
2022-09-22T01:13:54.913Z,102097.84
2022-09-22T01:16:07.195Z,102096.13
2022-09-22T01:18:25.153Z,102096.09
2022-09-22T01:20:36.997Z,102097.84
2022-09-22T01:22:40.583Z,102097.84
2022-09-22T01:25:01.683Z,102097.84
2022-09-22T01:27:20.083Z,102086.41
2022-09-22T01:29:32.433Z,102089.06
2022-09-22T01:31:41.941Z,102086.25
2022-09-22T01:33:50.093Z,102090.50
2022-09-22T01:36:07.754Z,102084.50
2022-09-22T01:38:17.013Z,102082.72
2022-09-22T01:40:31.622Z,102081.56
2022-09-22T01:42:47.473Z,102076.44
2022-09-22T01:44:54.484Z,102073.66
2022-09-22T01:47:02.385Z,102076.16
2022-09-22T01:49:08.514Z,102073.75
2022-09-22T01:51:19.843Z,102069.22
2022-09-22T01:53:26.773Z,102068.38
2022-09-22T01:55:34.078Z,102066.59
2022-09-22T01:57:46.193Z,102070.06
2022-09-22T01:59:52.341Z,102064.84
2022-09-22T02:02:02.248Z,102071.81
2022-09-22T02:06:27.304Z,102068.38
2022-09-22T02:08:37.382Z,102064.59
2022-09-22T02:10:44.673Z,102056.84
2022-09-22T02:16:54.853Z,102057.56
2022-09-22T02:19:13.753Z,102058.47
2022-09-22T02:21:29.183Z,102054.94
2022-09-22T02:23:32.283Z,102053.13
2022-09-22T02:25:35.535Z,102055.75
2022-09-22T02:27:37.738Z,102053.13
2022-09-22T02:29:43.836Z,102057.41
2022-09-22T02:33:49.925Z,102053.06
2022-09-22T02:35:59.635Z,102048.72
2022-09-22T02:38:16.198Z,102045.22
2022-09-22T02:40:18.394Z,102048.72
2022-09-22T02:42:33.470Z,102045.22
2022-09-22T02:44:54.745Z,102047.81
2022-09-22T02:47:04.289Z,102046.06
2022-09-22T02:49:12.215Z,102041.75
2022-09-22T02:53:18.697Z,102042.66
2022-09-22T02:57:21.609Z,102040.81
2022-09-22T02:59:23.612Z,102036.38
2022-09-22T03:01:25.906Z,102039.78
2022-09-22T03:03:27.985Z,102042.38
2022-09-22T03:05:29.724Z,102039.69
2022-09-22T03:07:31.605Z,102040.50
2022-09-22T03:09:33.866Z,102033.50
2022-09-22T03:11:35.904Z,102032.56
2022-09-22T03:13:37.606Z,102025.53
2022-09-22T03:15:39.267Z,102032.47
2022-09-22T03:17:42.149Z,102024.69
2022-09-22T03:19:43.894Z,102021.13
2022-09-22T03:21:45.885Z,102019.38
2022-09-22T03:23:47.769Z,102015.88
2022-09-22T03:25:49.779Z,102023.66
2022-09-22T03:27:51.489Z,102016.72
2022-09-22T03:29:53.466Z,102020.19
2022-09-22T03:33:57.130Z,102013.03
2022-09-22T03:35:59.138Z,102013.72
2022-09-22T03:38:00.956Z,102007.84
2022-09-22T03:40:04.392Z,102007.78
2022-09-22T03:42:06.655Z,102009.38
2022-09-22T03:46:09.526Z,101999.84
2022-09-22T03:50:13.224Z,101996.19
2022-09-22T03:52:15.054Z,101996.16
2022-09-22T03:54:16.981Z,101989.94
2022-09-22T03:56:19.146Z,101995.84
2022-09-22T03:58:21.802Z,101997.69
2022-09-22T04:00:23.652Z,101994.91
2022-09-22T04:04:26.989Z,101983.84
2022-09-22T04:06:28.659Z,101987.28
2022-09-22T04:08:30.304Z,101991.34
2022-09-22T04:10:32.184Z,101988.78
2022-09-22T04:12:33.805Z,101987.91
2022-09-22T04:16:36.521Z,101983.56
2022-09-22T04:18:41.431Z,101988.78
2022-09-22T04:20:44.375Z,101987.88
2022-09-22T04:22:46.020Z,101983.59
2022-09-22T04:24:47.740Z,101984.44
2022-09-22T04:27:15.252Z,101978.47
2022-09-22T04:28:51.129Z,101975.81
2022-09-22T04:30:52.881Z,101972.34
2022-09-22T04:32:54.516Z,101973.28
2022-09-22T04:34:56.185Z,101968.94
2022-09-22T04:36:58.032Z,101973.28
2022-09-22T04:39:04.134Z,101963.72
2022-09-22T04:41:05.971Z,101962.91
2022-09-22T04:43:07.714Z,101968.13
2022-09-22T04:45:10.390Z,101966.38
2022-09-22T04:47:12.270Z,101964.72
2022-09-22T04:49:14.477Z,101967.25
2022-09-22T04:51:16.327Z,101957.75
2022-09-22T04:53:18.338Z,101956.88
2022-09-22T04:55:20.684Z,101950.75
2022-09-22T04:57:22.826Z,101951.63
2022-09-22T04:59:24.758Z,101954.28
2022-09-22T05:01:27.496Z,101953.13
2022-09-22T05:03:29.387Z,101951.56
2022-09-22T05:05:31.810Z,101953.16
2022-09-22T05:07:33.449Z,101947.97
2022-09-22T05:09:35.627Z,101950.59
2022-09-22T05:11:38.324Z,101956.78
2022-09-22T05:13:41.293Z,101954.22
2022-09-22T05:15:43.074Z,101946.41
2022-09-22T05:17:47.687Z,101958.16
2022-09-22T05:19:50.035Z,101951.41
2022-09-22T05:21:51.795Z,101957.31
2022-09-22T05:23:55.374Z,101957.31
2022-09-22T05:25:59.274Z,101952.84
2022-09-22T05:30:03.194Z,101954.06
2022-09-22T05:32:05.369Z,101952.47
2022-09-22T05:34:07.252Z,101956.88
2022-09-22T05:36:09.141Z,101949.97
2022-09-22T05:38:11.068Z,101952.66
2022-09-22T05:40:13.819Z,101955.34
2022-09-22T05:42:15.766Z,101959.66
2022-09-22T05:44:17.752Z,101958.00
2022-09-22T05:46:19.957Z,101965.78
2022-09-22T05:48:21.854Z,101963.16
2022-09-22T05:50:24.056Z,101965.78
2022-09-22T05:52:25.904Z,101972.78
2022-09-22T05:54:27.781Z,101971.94
2022-09-22T05:56:31.324Z,101970.97
2022-09-22T05:58:33.980Z,101968.34
2022-09-22T06:00:35.864Z,101971.91
2022-09-22T06:02:38.543Z,101971.06
2022-09-22T06:04:40.780Z,101962.25
2022-09-22T06:06:42.460Z,101964.78
2022-09-22T06:08:48.619Z,101967.34
2022-09-22T06:10:51.561Z,101964.59
2022-09-22T06:12:59.195Z,101964.50
2022-09-22T06:15:01.209Z,101966.28
2022-09-22T06:17:03.603Z,101968.03
2022-09-22T06:19:05.760Z,101962.84
2022-09-22T06:21:07.914Z,101968.06
2022-09-22T06:23:10.389Z,101975.00
2022-09-22T06:25:12.432Z,101967.25
2022-09-22T06:27:14.581Z,101965.47
2022-09-22T06:29:16.756Z,101967.25
2022-09-22T06:31:18.668Z,101961.31
2022-09-22T06:33:24.096Z,101969.06
2022-09-22T06:37:30.376Z,101963.03
2022-09-22T06:39:32.348Z,101961.34
2022-09-22T06:41:34.411Z,101959.66
2022-09-22T06:43:38.118Z,101959.47
2022-09-22T06:45:40.469Z,101967.41
2022-09-22T06:47:43.246Z,101960.25
2022-09-22T06:49:46.722Z,101959.59
2022-09-22T06:51:49.741Z,101957.00
2022-09-22T06:53:52.216Z,101953.41
2022-09-22T06:55:54.493Z,101957.03
2022-09-22T06:57:59.326Z,101960.41
2022-09-22T07:00:02.013Z,101956.19
2022-09-22T07:04:10.155Z,101960.44
2022-09-22T07:06:20.170Z,101959.63
2022-09-22T07:08:23.631Z,101956.09
2022-09-22T07:12:27.874Z,101951.91
2022-09-22T07:14:29.734Z,101948.44
2022-09-22T07:18:33.540Z,101943.38
2022-09-22T07:20:36.009Z,101942.63
2022-09-22T07:22:39.560Z,101952.03
2022-09-22T07:24:42.675Z,101947.72
2022-09-22T07:26:45.615Z,101953.88
2022-09-22T07:28:50.532Z,101953.00
2022-09-22T07:32:55.025Z,101953.03
2022-09-22T07:34:58.100Z,101958.22
2022-09-22T07:36:59.875Z,101953.88
2022-09-22T07:39:07.412Z,101941.88
2022-09-22T07:41:12.265Z,101943.41
2022-09-22T07:43:14.065Z,101946.00
2022-09-22T07:45:15.984Z,101945.22
2022-09-22T07:47:17.651Z,101935.69
2022-09-22T07:49:21.784Z,101935.78
2022-09-22T07:51:25.796Z,101937.50
2022-09-22T07:53:27.605Z,101933.28
2022-09-22T07:55:29.367Z,101935.88
2022-09-22T07:57:31.880Z,101934.19
2022-09-22T07:59:35.154Z,101942.13
2022-09-22T08:01:42.167Z,101936.13
2022-09-22T08:05:49.924Z,101943.91
2022-09-22T08:07:52.095Z,101929.28
2022-09-22T08:09:53.781Z,101927.59
2022-09-22T08:11:56.220Z,101934.50
2022-09-22T08:14:00.309Z,101926.78
2022-09-22T08:16:05.196Z,101924.28
2022-09-22T08:18:07.634Z,101919.94
2022-09-22T08:20:09.657Z,101917.28
2022-09-22T08:22:12.148Z,101919.25
2022-09-22T08:24:15.558Z,101915.69
2022-09-22T08:26:18.055Z,101903.63
2022-09-22T08:28:20.768Z,101901.13
2022-09-22T08:30:23.630Z,101905.59
2022-09-22T08:32:27.484Z,101901.38
2022-09-22T08:34:29.947Z,101902.28
2022-09-22T08:36:33.097Z,101915.31
2022-09-22T08:40:39.698Z,101912.84
2022-09-22T08:44:51.634Z,101916.56
2022-09-22T08:46:57.287Z,101914.84
2022-09-22T08:49:10.072Z,101919.34
2022-09-22T08:51:19.477Z,101916.03
2022-09-22T08:55:27.163Z,101914.44
2022-09-22T08:59:44.646Z,101903.22
2022-09-22T09:01:51.616Z,101903.22
2022-09-22T09:04:00.714Z,101903.44
2022-09-22T09:06:06.917Z,101906.91
2022-09-22T09:08:13.238Z,101905.22
2022-09-22T09:12:25.963Z,101898.41
2022-09-22T09:16:39.480Z,101894.19
2022-09-22T09:18:51.004Z,101897.69
2022-09-22T09:20:53.965Z,101905.50
2022-09-22T09:22:56.433Z,101904.81
2022-09-22T09:27:12.763Z,101907.38
2022-09-22T09:29:23.914Z,101906.69
2022-09-22T09:31:31.982Z,101903.22
2022-09-22T09:33:57.088Z,101907.66
2022-09-22T09:36:00.349Z,101907.66
2022-09-22T09:38:03.391Z,101905.09
2022-09-22T09:42:18.844Z,101899.13
2022-09-22T09:44:27.254Z,101894.81
2022-09-22T09:48:44.442Z,101874.97
2022-09-22T09:50:46.828Z,101879.31
2022-09-22T09:52:49.455Z,101885.34
2022-09-22T09:54:53.473Z,101876.88
2022-09-22T09:59:10.207Z,101862.19
2022-09-22T10:03:20.300Z,101857.88
2022-09-22T10:05:27.000Z,101864.81
2022-09-22T10:07:40.916Z,101861.34
2022-09-22T10:09:44.362Z,101861.41
2022-09-22T10:14:01.149Z,101858.09
2022-09-22T10:16:06.328Z,101858.13
2022-09-22T10:20:18.061Z,101852.09
2022-09-22T10:22:24.653Z,101843.41
2022-09-22T10:24:31.854Z,101845.22
2022-09-22T10:26:34.235Z,101835.69
2022-09-22T10:28:36.788Z,101840.91
2022-09-22T10:30:39.599Z,101832.22
2022-09-22T10:32:42.864Z,101837.47
2022-09-22T10:36:48.990Z,101834.91
2022-09-22T10:38:53.356Z,101830.56
2022-09-22T10:43:32.244Z,101814.91
2022-09-22T10:45:43.324Z,101830.47
2022-09-22T10:47:46.797Z,101826.13
2022-09-22T10:49:54.993Z,101833.09
2022-09-22T10:52:00.399Z,101828.75
2022-09-22T10:56:16.840Z,101822.69
2022-09-22T10:58:26.986Z,101820.03
2022-09-22T11:00:35.323Z,101816.56
2022-09-22T11:02:45.728Z,101822.66
2022-09-22T11:05:01.332Z,101814.84
2022-09-22T11:07:10.932Z,101813.97
2022-09-22T11:11:32.694Z,101809.72
2022-09-22T11:15:55.473Z,101805.47
2022-09-22T11:18:03.669Z,101795.94
2022-09-22T11:20:11.962Z,101792.47
2022-09-22T11:22:17.718Z,101802.03
2022-09-22T11:24:27.483Z,101797.69
2022-09-22T11:26:32.604Z,101791.59
2022-09-22T11:28:41.883Z,101795.09
2022-09-22T11:30:50.478Z,101783.75
2022-09-22T11:33:05.082Z,101782.00
2022-09-22T11:35:13.408Z,101785.50
2022-09-22T11:37:24.428Z,101788.09
2022-09-22T11:41:38.364Z,101775.03
2022-09-22T11:43:42.517Z,101772.44
2022-09-22T11:47:57.963Z,101766.34
2022-09-22T11:50:03.024Z,101759.38
2022-09-22T11:52:17.585Z,101761.97
2022-09-22T11:54:26.058Z,101771.56
2022-09-22T11:56:33.009Z,101766.34
2022-09-22T11:58:38.990Z,101747.13
2022-09-22T12:00:48.994Z,101748.00
2022-09-22T12:03:01.426Z,101744.56
2022-09-22T12:05:02.373Z,101743.69
2022-09-22T12:09:21.957Z,101746.28
2022-09-22T12:13:31.481Z,101740.16
2022-09-22T12:15:40.264Z,101728.84
2022-09-22T12:17:46.033Z,101722.81
2022-09-22T12:19:51.481Z,101727.09
2022-09-22T12:21:54.192Z,101727.13
2022-09-22T12:24:00.418Z,101713.19
2022-09-22T12:26:08.277Z,101721.00
2022-09-22T12:30:23.186Z,101723.63
2022-09-22T12:32:35.309Z,101730.59
2022-09-22T12:34:40.260Z,101716.72
2022-09-22T12:36:43.131Z,101714.97
2022-09-22T12:38:46.353Z,101702.72
2022-09-22T12:40:51.830Z,101707.97
2022-09-22T12:42:54.924Z,101712.28
2022-09-22T12:45:03.656Z,101724.50
2022-09-22T12:47:24.643Z,101696.63
2022-09-22T12:49:27.240Z,101703.56
2022-09-22T12:51:35.320Z,101707.00
2022-09-22T12:53:41.552Z,101696.53
2022-09-22T12:55:46.109Z,101698.31
2022-09-22T12:57:50.707Z,101688.75
2022-09-22T12:59:58.354Z,101692.28
2022-09-22T13:02:15.233Z,101691.41
2022-09-22T13:04:18.717Z,101700.13
2022-09-22T13:06:22.294Z,101693.16
2022-09-22T13:08:31.335Z,101682.69
2022-09-22T13:10:35.130Z,101686.16
2022-09-22T13:12:37.246Z,101680.97
2022-09-22T13:14:58.617Z,101680.06
2022-09-22T13:17:20.848Z,101684.47
2022-09-22T13:19:22.720Z,101672.25
2022-09-22T13:21:28.188Z,101674.03
2022-09-22T13:23:30.922Z,101665.28
2022-09-22T13:25:33.044Z,101667.88
2022-09-22T13:27:35.102Z,101672.22
2022-09-22T13:29:37.403Z,101672.19
2022-09-22T13:31:44.125Z,101668.66
2022-09-22T13:33:46.287Z,101655.56
2022-09-22T13:35:57.249Z,101654.59
2022-09-22T13:38:00.125Z,101661.56
2022-09-22T13:40:02.933Z,101647.56
2022-09-22T13:42:08.641Z,101652.81
2022-09-22T13:44:13.264Z,101641.50
2022-09-22T13:46:25.422Z,101650.19
2022-09-22T13:48:32.743Z,101637.16
2022-09-22T13:50:53.243Z,101631.06
2022-09-22T13:52:55.409Z,101631.00
2022-09-22T13:55:00.872Z,101626.53
2022-09-22T13:57:07.001Z,101621.28
2022-09-22T13:59:12.776Z,101622.91
2022-09-22T14:01:17.691Z,101627.16
2022-09-22T14:03:22.237Z,101619.31
2022-09-22T14:05:28.525Z,101611.44
2022-09-22T14:07:38.306Z,101607.81
2022-09-22T14:09:49.431Z,101612.09
2022-09-22T14:11:52.374Z,101612.22
2022-09-22T14:13:55.244Z,101598.94
2022-09-22T14:15:57.562Z,101594.59
2022-09-22T14:18:00.690Z,101602.47
2022-09-22T14:20:06.184Z,101597.38
2022-09-22T14:22:18.285Z,101601.78
2022-09-22T14:24:20.522Z,101594.94
2022-09-22T14:26:30.134Z,101596.50
2022-09-22T14:28:37.206Z,101593.00
2022-09-22T14:30:42.590Z,101588.53
2022-09-22T14:32:54.821Z,101590.28
2022-09-22T14:34:59.383Z,101588.47
2022-09-22T14:37:16.440Z,101579.81
2022-09-22T14:39:34.399Z,101585.19
2022-09-22T14:41:37.966Z,101573.06
2022-09-22T14:43:42.519Z,101576.53
2022-09-22T14:45:57.293Z,101566.91
2022-09-22T14:48:15.615Z,101560.00
2022-09-22T14:50:20.528Z,101568.59
2022-09-22T14:52:27.906Z,101569.63
2022-09-22T14:54:32.295Z,101566.28
2022-09-22T14:56:35.021Z,101568.03
2022-09-22T14:58:40.898Z,101563.56
2022-09-22T15:01:05.641Z,101565.34
2022-09-22T15:03:20.845Z,101552.34
2022-09-22T15:05:29.850Z,101562.00
2022-09-22T15:07:36.496Z,101572.44
2022-09-22T15:09:43.219Z,101561.13
2022-09-22T15:11:49.317Z,101561.16
2022-09-22T15:13:53.059Z,101556.88
2022-09-22T15:15:55.934Z,101565.66
2022-09-22T15:18:09.479Z,101570.00
2022-09-22T15:20:11.855Z,101570.91
2022-09-22T15:22:17.096Z,101568.22
2022-09-22T15:24:27.147Z,101562.09
2022-09-22T15:26:31.540Z,101567.38
2022-09-22T15:28:38.557Z,101556.84
2022-09-22T15:30:42.986Z,101561.22
2022-09-22T15:32:48.697Z,101556.06
2022-09-22T15:34:51.727Z,101563.91
2022-09-22T15:36:56.189Z,101557.78
2022-09-22T15:39:21.226Z,101548.34
2022-09-22T15:41:23.374Z,101556.19
2022-09-22T15:43:31.450Z,101546.59
2022-09-22T15:45:34.663Z,101550.19
2022-09-22T15:47:39.527Z,101551.91
2022-09-22T15:49:43.080Z,101552.81
2022-09-22T15:51:46.473Z,101545.91
2022-09-22T15:53:48.657Z,101550.31
2022-09-22T15:55:53.013Z,101546.00
2022-09-22T15:57:57.258Z,101546.03
2022-09-22T15:59:59.447Z,101544.31
2022-09-22T16:02:02.239Z,101533.81
2022-09-22T16:04:05.014Z,101535.63
2022-09-22T16:06:12.416Z,101534.72
2022-09-22T16:08:17.261Z,101528.66
2022-09-22T16:10:24.131Z,101532.03
2022-09-22T16:12:28.072Z,101532.94
2022-09-22T16:14:30.855Z,101524.19
2022-09-22T16:16:35.238Z,101526.84
2022-09-22T16:18:42.259Z,101527.72
2022-09-22T16:20:46.274Z,101527.72
2022-09-22T16:22:48.518Z,101519.84
2022-09-22T16:24:50.910Z,101538.13
2022-09-22T16:26:54.120Z,101532.97
2022-09-22T16:28:57.134Z,101530.34
2022-09-22T16:31:11.302Z,101522.53
2022-09-22T16:33:16.214Z,101526.91
2022-09-22T16:35:18.824Z,101522.56
2022-09-22T16:37:22.614Z,101524.34
2022-09-22T16:39:25.112Z,101518.19
2022-09-22T16:41:32.260Z,101524.31
2022-09-22T16:43:34.963Z,101516.50
2022-09-22T16:45:47.143Z,101518.25
2022-09-22T16:47:50.018Z,101522.66
2022-09-22T16:49:53.003Z,101522.66
2022-09-22T16:51:56.343Z,101525.31
2022-09-22T16:54:00.497Z,101525.34
2022-09-22T16:56:04.075Z,101527.06
2022-09-22T16:58:09.550Z,101532.28
2022-09-22T17:00:12.847Z,101523.63
2022-09-22T17:02:18.745Z,101528.84
2022-09-22T17:04:21.553Z,101524.53
2022-09-22T17:06:26.116Z,101526.25
2022-09-22T17:08:28.956Z,101534.94
2022-09-22T17:10:34.880Z,101521.88
2022-09-22T17:12:39.089Z,101527.13
2022-09-22T17:14:44.274Z,101534.94
2022-09-22T17:16:53.358Z,101524.50
2022-09-22T17:18:58.229Z,101520.16
2022-09-22T17:21:01.047Z,101519.31
2022-09-22T17:23:03.259Z,101518.44
2022-09-22T17:25:06.466Z,101520.16
2022-09-22T17:27:08.899Z,101517.56
2022-09-22T17:29:11.344Z,101526.28
2022-09-22T17:31:14.416Z,101533.22
2022-09-22T17:33:17.706Z,101521.03
2022-09-22T17:35:20.228Z,101528.88
2022-09-22T17:37:23.609Z,101520.16
2022-09-22T17:39:27.918Z,101538.44
2022-09-22T17:41:33.448Z,101533.19
2022-09-22T17:43:40.789Z,101528.88
2022-09-22T17:45:43.171Z,101526.25
2022-09-22T17:47:55.457Z,101519.31
2022-09-22T17:50:07.782Z,101514.09
2022-09-22T17:52:20.674Z,101514.97
2022-09-22T17:54:33.494Z,101525.38
2022-09-22T17:56:35.774Z,101517.56
2022-09-22T17:58:38.232Z,101508.88
2022-09-22T18:00:42.421Z,101508.00
2022-09-22T18:02:45.401Z,101508.00
2022-09-22T18:04:48.606Z,101516.69
2022-09-22T18:06:51.505Z,101503.66
2022-09-22T18:09:00.465Z,101511.50
2022-09-22T18:11:08.057Z,101516.72
2022-09-22T18:13:10.586Z,101514.94
2022-09-22T18:15:14.618Z,101508.00
2022-09-22T18:17:19.485Z,101511.47
2022-09-22T18:19:21.757Z,101527.13
2022-09-22T18:21:23.689Z,101525.34
2022-09-22T18:23:28.447Z,101527.09
2022-09-22T18:25:32.609Z,101527.13
2022-09-22T18:27:34.775Z,101536.69
2022-09-22T18:29:37.242Z,101524.50
2022-09-22T18:31:39.766Z,101521.91
2022-09-22T18:33:43.829Z,101521.84
2022-09-22T18:35:47.731Z,101523.56
2022-09-22T18:37:51.380Z,101528.81
2022-09-22T18:39:54.192Z,101531.38
2022-09-22T18:41:56.604Z,101534.84
2022-09-22T18:43:59.847Z,101538.28
2022-09-22T18:46:06.674Z,101532.22
2022-09-22T18:48:08.848Z,101533.06
2022-09-22T18:50:12.097Z,101545.22
2022-09-22T18:52:16.440Z,101541.75
2022-09-22T18:54:21.735Z,101537.34
2022-09-22T18:56:25.754Z,101545.19
2022-09-22T18:58:27.600Z,101546.91
2022-09-22T19:00:29.880Z,101546.06
2022-09-22T19:02:32.294Z,101545.16
2022-09-22T19:04:35.080Z,101541.69
2022-09-22T19:06:47.160Z,101549.47
2022-09-22T19:08:49.151Z,101545.16
2022-09-22T19:10:51.059Z,101545.09
2022-09-22T19:12:54.102Z,101534.69
2022-09-22T19:14:57.321Z,101539.06
2022-09-22T19:17:00.797Z,101549.47
2022-09-22T19:19:03.109Z,101548.63
2022-09-22T19:21:05.240Z,101543.38
2022-09-22T19:23:07.405Z,101537.34
2022-09-22T19:25:10.890Z,101536.44
2022-09-22T19:27:15.680Z,101535.56
2022-09-22T19:29:18.291Z,101536.41
2022-09-22T19:31:20.523Z,101541.63
2022-09-22T19:33:22.461Z,101539.03
2022-09-22T19:35:24.445Z,101537.28
2022-09-22T19:37:28.084Z,101528.63
2022-09-22T19:39:31.035Z,101526.88
2022-09-22T19:41:33.535Z,101532.09
2022-09-22T19:43:35.380Z,101536.41
2022-09-22T19:45:37.196Z,101535.56
2022-09-22T19:47:40.084Z,101531.19
2022-09-22T19:49:42.319Z,101528.56
2022-09-22T19:51:45.760Z,101528.56
2022-09-22T19:53:47.535Z,101522.50
2022-09-22T19:55:49.421Z,101522.50
2022-09-22T19:57:54.338Z,101518.16
2022-09-22T19:59:56.460Z,101515.59
2022-09-22T20:01:58.641Z,101526.84
2022-09-22T20:04:00.989Z,101527.75
2022-09-22T20:06:03.253Z,101522.53
2022-09-22T20:08:06.846Z,101519.06
2022-09-22T20:10:09.129Z,101518.16
2022-09-22T20:12:11.086Z,101531.19
2022-09-22T20:14:22.672Z,101522.50
2022-09-22T20:16:28.210Z,101521.59
2022-09-22T20:18:30.061Z,101513.81
2022-09-22T20:20:33.275Z,101512.09
2022-09-22T20:22:36.914Z,101515.56
2022-09-22T20:24:38.900Z,101502.50
2022-09-22T20:26:42.994Z,101510.34
2022-09-22T20:28:45.566Z,101502.53
2022-09-22T20:30:47.742Z,101508.63
2022-09-22T20:32:50.694Z,101510.34
2022-09-22T20:34:54.499Z,101506.88
2022-09-22T20:36:56.943Z,101514.72
2022-09-22T20:38:59.553Z,101505.16
2022-09-22T20:41:02.919Z,101503.38
2022-09-22T20:43:06.216Z,101501.72
2022-09-22T20:45:11.377Z,101501.69
2022-09-22T20:47:15.824Z,101506.03
2022-09-22T20:49:19.788Z,101500.84
2022-09-22T20:51:21.771Z,101495.66
2022-09-22T20:53:23.677Z,101505.19
2022-09-22T20:55:25.560Z,101507.78
2022-09-22T20:57:32.761Z,101508.69
2022-09-22T20:59:34.505Z,101513.00
2022-09-22T21:01:37.022Z,101513.88
2022-09-22T21:03:39.535Z,101503.41
2022-09-22T21:05:42.601Z,101506.84
2022-09-22T21:07:44.416Z,101508.63
2022-09-22T21:09:55.331Z,101512.97
2022-09-22T21:11:57.450Z,101515.50
2022-09-22T21:14:04.020Z,101513.81
2022-09-22T21:16:05.871Z,101520.75
2022-09-22T21:18:07.886Z,101515.50
2022-09-22T21:20:10.085Z,101517.28
2022-09-22T21:22:13.643Z,101510.34
2022-09-22T21:24:15.696Z,101516.38
2022-09-22T21:26:20.320Z,101504.16
2022-09-22T21:28:22.145Z,101504.22
2022-09-22T21:30:24.412Z,101499.81
2022-09-22T21:32:26.617Z,101502.41
2022-09-22T21:34:29.856Z,101504.97
2022-09-22T21:36:31.605Z,101498.03
2022-09-22T21:38:33.386Z,101497.16
2022-09-22T21:40:35.413Z,101498.91
2022-09-22T21:42:37.150Z,101494.50
2022-09-22T21:44:39.284Z,101492.81
2022-09-22T21:46:42.351Z,101487.63
2022-09-22T21:48:44.729Z,101493.63
2022-09-22T21:50:55.380Z,101496.28
2022-09-22T21:52:57.334Z,101491.09
2022-09-22T21:54:59.179Z,101486.78
2022-09-22T21:57:01.059Z,101488.47
2022-09-22T21:59:03.724Z,101495.44
2022-09-22T22:01:08.155Z,101490.28
2022-09-22T22:03:30.120Z,101488.47
2022-09-22T22:05:32.036Z,101480.69
2022-09-22T22:07:34.116Z,101474.59
2022-09-22T22:09:35.941Z,101465.94
2022-09-22T22:11:40.379Z,101480.69
2022-09-22T22:13:43.739Z,101476.34
2022-09-22T22:15:45.974Z,101482.41
2022-09-22T22:17:47.769Z,101473.75
2022-09-22T22:19:49.391Z,101475.53
2022-09-22T22:21:51.747Z,101470.31
2022-09-22T22:23:56.649Z,101470.31
2022-09-22T22:26:01.374Z,101467.66
2022-09-22T22:28:03.119Z,101467.66
2022-09-22T22:30:05.628Z,101472.00
2022-09-22T22:32:09.554Z,101464.19
2022-09-22T22:34:13.515Z,101463.34
2022-09-22T22:36:17.580Z,101460.72
2022-09-22T22:38:19.871Z,101466.81
2022-09-22T22:40:21.959Z,101456.34
2022-09-22T22:42:23.759Z,101452.06
2022-09-22T22:44:25.639Z,101452.94
2022-09-22T22:46:27.413Z,101446.00
2022-09-22T22:48:29.454Z,101447.72
2022-09-22T22:50:31.290Z,101439.06
2022-09-22T22:52:32.984Z,101440.84
2022-09-22T22:54:34.624Z,101436.50
2022-09-22T22:56:39.690Z,101428.66
2022-09-22T22:58:45.149Z,101422.53
2022-09-22T23:00:47.138Z,101430.38
2022-09-22T23:02:48.764Z,101422.59
2022-09-22T23:04:50.434Z,101431.25
2022-09-22T23:06:52.194Z,101424.31
2022-09-22T23:08:54.531Z,101425.13
2022-09-22T23:11:02.639Z,101416.47
2022-09-22T23:13:04.370Z,101422.56
2022-09-22T23:15:11.367Z,101420.84
2022-09-22T23:17:13.043Z,101426.91
2022-09-22T23:19:16.970Z,101422.50
2022-09-22T23:21:21.128Z,101429.44
2022-09-22T23:23:23.054Z,101430.34
2022-09-22T23:25:25.273Z,101422.53
2022-09-22T23:27:27.066Z,101429.47
2022-09-22T23:29:28.676Z,101426.88
2022-09-22T23:31:31.064Z,101426.91
2022-09-22T23:33:32.724Z,101428.59
2022-09-22T23:35:34.444Z,101428.56
2022-09-22T23:37:36.244Z,101422.50
2022-09-22T23:39:37.844Z,101426.81
2022-09-22T23:41:39.481Z,101421.63
2022-09-22T23:43:41.310Z,101422.47
2022-09-22T23:45:42.991Z,101420.75
2022-09-22T23:47:44.689Z,101417.28
2022-09-22T23:49:46.334Z,101413.75
2022-09-22T23:51:47.964Z,101408.56
2022-09-22T23:53:49.716Z,101406.84
2022-09-22T23:55:51.794Z,101401.63
2022-09-22T23:57:53.420Z,101400.75
2022-09-22T23:59:55.104Z,101390.38
